Date,TemperatureHighF,TemperatureAvgF,TemperatureLowF,DewpointHighF,DewpointAvgF,DewpointLowF,HumidityHigh,HumidityAvg,HumidityLow,PressureMaxIn,PressureMinIn,WindSpeedMaxMPH,WindSpeedAvgMPH,GustSpeedMaxMPH,PrecipitationSumIn
2013-8-1,81,74,70,51,42,17,45,32,10,31.03,31.03,15,8,11,0.00
2013-8-2,81,74,69,65,50,39,71,44,24,31.03,31.03,25,10,14,0.29
2013-8-3,76,74,72,54,48,36,48,40,26,31.03,31.03,29,14,20,0.08
2013-8-4,83,73,65,50,26,-17,47,23,2,31.03,31.03,23,6,11,0.04
2013-8-5,80,69,63,44,15,-20,43,19,2,31.03,31.03,20,7,9,0.04
2013-8-6,78,68,58,43,12,-20,44,19,2,31.03,31.03,11,5,5,0.00
2013-8-7,77,69,60,44,13,-20,42,16,2,31.03,31.03,13,6,8,0.00
2013-8-8,80,74,68,58,44,25,55,35,20,31.03,31.03,23,11,0,0.00
2013-8-9,79,77,73,70,62,49,76,59,41,31.03,31.03,34,17,0,0.00
2013-8-10,87,78,70,71,46,-14,80,41,2,31.03,31.03,26,10,0,0.00
2013-8-11,84,72,63,43,14,-19,42,17,2,31.03,31.03,17,7,0,0.00
2013-8-12,78,73,68,58,48,41,57,42,29,31.03,31.03,17,10,0,0.00
2013-8-13,75,72,69,62,57,53,68,59,53,31.03,31.03,15,4,0,0.00
2013-8-14,81,72,66,65,28,-20,77,33,2,31.03,31.03,22,8,0,0.00
2013-8-15,80,69,60,42,14,-20,47,20,2,31.03,31.03,20,9,0,0.00
2013-8-16,79,71,64,46,31,-10,48,27,3,31.03,31.03,18,9,0,0.00
2013-8-17,82,72,63,47,35,-16,50,30,4,31.03,31.03,11,4,0,0.00
2013-8-18,75,69,64,51,40,18,51,35,17,31.03,31.03,9,4,0,0.00
2013-8-19,80,71,62,50,45,36,56,40,26,31.03,31.03,18,7,0,0.00
2013-8-20,84,76,69,51,43,18,50,33,9,31.03,31.03,17,6,0,0.00
2013-8-21,86,76,67,57,49,38,52,40,20,31.03,31.03,17,7,0,0.00
2013-8-22,80,77,75,66,59,52,74,56,40,31.03,31.03,26,13,0,0.00
2013-8-23,81,75,67,64,34,-17,69,33,2,31.03,31.03,25,8,0,0.00
2013-8-24,79,69,58,45,14,-20,46,20,2,31.03,31.03,21,7,0,0.00
2013-8-25,81,69,56,43,23,-16,48,23,2,31.03,31.03,17,7,0,0.00
2013-8-26,75,72,70,54,44,26,53,37,19,31.03,31.03,31,16,0,0.00
2013-8-27,76,73,70,68,61,54,82,67,54,31.03,31.03,19,5,8,0.00
2013-8-28,82,73,70,67,57,47,81,59,31,31.03,31.03,10,4,11,0.00
2013-8-29,72,70,64,61,52,43,71,54,42,31.03,31.03,16,7,16,0.00
2013-8-30,77,70,63,62,50,42,66,49,35,31.03,31.03,20,9,21,0.00
2013-8-31,78,76,74,65,62,57,71,63,49,31.03,31.03,25,13,25,0.00